sensor_id;sensor_type;location;lat;lon;timestamp;pressure;altitude;pressure_sealevel;temperature;humidity
54554;BME280;40450;55.848;-3.572;2023-04-19T00:02:17;101366.78;;;3.31;94.85
54554;BME280;40450;55.848;-3.572;2023-04-19T00:04:47;101363.36;;;3.86;94.01
54554;BME280;40450;55.848;-3.572;2023-04-19T00:07:17;101362.91;;;3.84;93.62
54554;BME280;40450;55.848;-3.572;2023-04-19T00:09:48;101367.31;;;3.51;94.54
54554;BME280;40450;55.848;-3.572;2023-04-19T00:12:19;101360.70;;;6.70;89.08
54554;BME280;40450;55.848;-3.572;2023-04-19T00:14:50;101360.78;;;8.44;85.49
54554;BME280;40450;55.848;-3.572;2023-04-19T00:17:19;101358.66;;;9.34;80.94
54554;BME280;40450;55.848;-3.572;2023-04-19T00:19:49;101359.56;;;9.94;77.92
54554;BME280;40450;55.848;-3.572;2023-04-19T00:22:20;101361.62;;;10.05;76.29
54554;BME280;40450;55.848;-3.572;2023-04-19T00:24:50;101363.18;;;9.83;77.97
54554;BME280;40450;55.848;-3.572;2023-04-19T00:27:20;101358.89;;;10.35;76.99
54554;BME280;40450;55.848;-3.572;2023-04-19T00:29:50;101355.93;;;10.69;76.04
54554;BME280;40450;55.848;-3.572;2023-04-19T00:32:21;101357.02;;;10.88;75.52
54554;BME280;40450;55.848;-3.572;2023-04-19T00:34:51;101354.07;;;10.80;71.94
54554;BME280;40450;55.848;-3.572;2023-04-19T00:37:22;101354.08;;;9.97;73.27
54554;BME280;40450;55.848;-3.572;2023-04-19T00:39:52;101356.35;;;9.75;73.59
54554;BME280;40450;55.848;-3.572;2023-04-19T00:42:22;101356.13;;;9.90;72.43
54554;BME280;40450;55.848;-3.572;2023-04-19T00:44:53;101354.69;;;10.22;73.41
54554;BME280;40450;55.848;-3.572;2023-04-19T00:47:24;101352.44;;;10.27;72.37
54554;BME280;40450;55.848;-3.572;2023-04-19T00:49:54;101347.79;;;10.44;69.93
54554;BME280;40450;55.848;-3.572;2023-04-19T00:52:24;101354.08;;;8.27;74.85
54554;BME280;40450;55.848;-3.572;2023-04-19T00:54:55;101353.89;;;7.09;78.89
54554;BME280;40450;55.848;-3.572;2023-04-19T00:57:25;101353.17;;;4.57;85.50
54554;BME280;40450;55.848;-3.572;2023-04-19T00:59:56;101343.81;;;6.49;80.88
54554;BME280;40450;55.848;-3.572;2023-04-19T01:02:30;101360.68;;;3.02;90.46
54554;BME280;40450;55.848;-3.572;2023-04-19T01:04:56;101362.02;;;2.54;92.56
54554;BME280;40450;55.848;-3.572;2023-04-19T01:07:26;101357.95;;;4.39;88.69
54554;BME280;40450;55.848;-3.572;2023-04-19T01:09:57;101353.20;;;7.24;82.85
54554;BME280;40450;55.848;-3.572;2023-04-19T01:12:33;101350.16;;;8.44;80.18
54554;BME280;40450;55.848;-3.572;2023-04-19T01:14:58;101345.92;;;9.40;76.78
54554;BME280;40450;55.848;-3.572;2023-04-19T01:17:31;101348.79;;;9.61;73.25
54554;BME280;40450;55.848;-3.572;2023-04-19T01:20:00;101346.81;;;9.59;73.98
54554;BME280;40450;55.848;-3.572;2023-04-19T01:22:30;101349.77;;;9.93;74.54
54554;BME280;40450;55.848;-3.572;2023-04-19T01:25:01;101345.62;;;9.21;74.58
54554;BME280;40450;55.848;-3.572;2023-04-19T01:27:31;101338.19;;;10.42;72.85
54554;BME280;40450;55.848;-3.572;2023-04-19T01:30:02;101339.92;;;10.27;71.63
54554;BME280;40450;55.848;-3.572;2023-04-19T01:32:32;101336.33;;;10.91;71.28
54554;BME280;40450;55.848;-3.572;2023-04-19T01:35:03;101334.48;;;11.07;71.21
54554;BME280;40450;55.848;-3.572;2023-04-19T01:37:34;101332.84;;;11.08;70.99
54554;BME280;40450;55.848;-3.572;2023-04-19T01:40:04;101328.19;;;10.84;70.39
54554;BME280;40450;55.848;-3.572;2023-04-19T01:42:34;101334.06;;;9.28;71.29
54554;BME280;40450;55.848;-3.572;2023-04-19T01:45:06;101330.16;;;10.67;69.46
54554;BME280;40450;55.848;-3.572;2023-04-19T01:47:35;101326.48;;;11.10;68.23
54554;BME280;40450;55.848;-3.572;2023-04-19T01:50:07;101325.50;;;11.07;65.86
54554;BME280;40450;55.848;-3.572;2023-04-19T01:52:36;101324.82;;;11.11;66.49
54554;BME280;40450;55.848;-3.572;2023-04-19T01:55:07;101325.94;;;11.23;67.09
54554;BME280;40450;55.848;-3.572;2023-04-19T01:57:36;101324.29;;;10.86;65.98
54554;BME280;40450;55.848;-3.572;2023-04-19T02:00:08;101320.03;;;10.80;65.92
54554;BME280;40450;55.848;-3.572;2023-04-19T02:02:37;101319.04;;;10.99;66.70
54554;BME280;40450;55.848;-3.572;2023-04-19T02:05:08;101318.96;;;10.50;65.91
54554;BME280;40450;55.848;-3.572;2023-04-19T02:07:38;101323.60;;;9.93;66.77
54554;BME280;40450;55.848;-3.572;2023-04-19T02:10:09;101321.61;;;10.14;67.41
54554;BME280;40450;55.848;-3.572;2023-04-19T02:12:40;101329.66;;;6.01;78.59
54554;BME280;40450;55.848;-3.572;2023-04-19T02:15:10;101321.89;;;8.59;71.60
54554;BME280;40450;55.848;-3.572;2023-04-19T02:17:40;101326.17;;;6.50;79.27
54554;BME280;40450;55.848;-3.572;2023-04-19T02:20:11;101319.92;;;6.25;81.09
54554;BME280;40450;55.848;-3.572;2023-04-19T02:22:41;101320.01;;;6.76;81.45
54554;BME280;40450;55.848;-3.572;2023-04-19T02:25:12;101314.57;;;8.98;76.91
54554;BME280;40450;55.848;-3.572;2023-04-19T02:27:42;101312.60;;;9.73;73.86
54554;BME280;40450;55.848;-3.572;2023-04-19T02:30:13;101305.62;;;10.26;71.88
54554;BME280;40450;55.848;-3.572;2023-04-19T02:32:44;101309.70;;;8.08;77.44
54554;BME280;40450;55.848;-3.572;2023-04-19T02:35:14;101308.21;;;6.59;82.39
54554;BME280;40450;55.848;-3.572;2023-04-19T02:37:44;101311.76;;;7.33;81.13
54554;BME280;40450;55.848;-3.572;2023-04-19T02:40:15;101307.10;;;8.53;77.71
54554;BME280;40450;55.848;-3.572;2023-04-19T02:42:46;101307.27;;;9.69;75.89
54554;BME280;40450;55.848;-3.572;2023-04-19T02:45:16;101303.02;;;10.14;73.35
54554;BME280;40450;55.848;-3.572;2023-04-19T02:47:47;101307.42;;;6.30;82.84
54554;BME280;40450;55.848;-3.572;2023-04-19T02:50:17;101308.67;;;7.75;79.70
54554;BME280;40450;55.848;-3.572;2023-04-19T02:52:48;101309.29;;;6.33;83.81
54554;BME280;40450;55.848;-3.572;2023-04-19T02:55:19;101299.98;;;9.43;77.67
54554;BME280;40450;55.848;-3.572;2023-04-19T02:57:49;101301.69;;;8.12;78.77
54554;BME280;40450;55.848;-3.572;2023-04-19T03:00:20;101301.84;;;5.29;87.26
54554;BME280;40450;55.848;-3.572;2023-04-19T03:02:50;101302.41;;;7.23;84.06
54554;BME280;40450;55.848;-3.572;2023-04-19T03:05:21;101300.38;;;8.89;79.77
54554;BME280;40450;55.848;-3.572;2023-04-19T03:07:51;101304.81;;;9.85;78.36
54554;BME280;40450;55.848;-3.572;2023-04-19T03:10:22;101301.09;;;10.37;74.86
54554;BME280;40450;55.848;-3.572;2023-04-19T03:12:52;101300.93;;;10.76;75.45
54554;BME280;40450;55.848;-3.572;2023-04-19T03:15:23;101303.11;;;10.84;74.73
54554;BME280;40450;55.848;-3.572;2023-04-19T03:17:53;101307.78;;;9.32;76.40
54554;BME280;40450;55.848;-3.572;2023-04-19T03:20:24;101315.28;;;7.12;83.55
54554;BME280;40450;55.848;-3.572;2023-04-19T03:22:54;101307.18;;;9.56;78.19
54554;BME280;40450;55.848;-3.572;2023-04-19T03:25:24;101305.01;;;10.41;75.79
54554;BME280;40450;55.848;-3.572;2023-04-19T03:27:55;101297.84;;;8.92;79.00
54554;BME280;40450;55.848;-3.572;2023-04-19T03:30:25;101305.17;;;7.54;82.53
54554;BME280;40450;55.848;-3.572;2023-04-19T03:32:56;101302.45;;;8.17;82.17
54554;BME280;40450;55.848;-3.572;2023-04-19T03:35:26;101302.85;;;7.74;83.71
54554;BME280;40450;55.848;-3.572;2023-04-19T03:37:56;101301.42;;;7.79;82.32
54554;BME280;40450;55.848;-3.572;2023-04-19T03:40:26;101295.15;;;8.36;81.86
54554;BME280;40450;55.848;-3.572;2023-04-19T03:42:57;101296.84;;;5.74;89.70
54554;BME280;40450;55.848;-3.572;2023-04-19T03:45:28;101300.01;;;4.53;92.69
54554;BME280;40450;55.848;-3.572;2023-04-19T03:47:59;101299.60;;;4.71;93.31
54554;BME280;40450;55.848;-3.572;2023-04-19T03:50:29;101301.69;;;5.03;93.04
54554;BME280;40450;55.848;-3.572;2023-04-19T03:52:59;101294.26;;;5.95;89.76
54554;BME280;40450;55.848;-3.572;2023-04-19T03:55:30;101295.18;;;6.43;89.05
54554;BME280;40450;55.848;-3.572;2023-04-19T03:58:00;101294.79;;;6.94;88.55
54554;BME280;40450;55.848;-3.572;2023-04-19T04:00:30;101294.82;;;3.06;96.88
54554;BME280;40450;55.848;-3.572;2023-04-19T04:03:01;101288.72;;;6.35;91.19
54554;BME280;40450;55.848;-3.572;2023-04-19T04:05:36;101286.10;;;6.24;88.92
54554;BME280;40450;55.848;-3.572;2023-04-19T04:08:02;101281.01;;;8.07;87.45
54554;BME280;40450;55.848;-3.572;2023-04-19T04:10:32;101285.56;;;5.43;89.97
54554;BME280;40450;55.848;-3.572;2023-04-19T04:13:02;101284.97;;;4.18;94.62
54554;BME280;40450;55.848;-3.572;2023-04-19T04:15:33;101283.80;;;7.37;88.23
54554;BME280;40450;55.848;-3.572;2023-04-19T04:18:04;101276.45;;;8.41;85.71
54554;BME280;40450;55.848;-3.572;2023-04-19T04:20:38;101275.75;;;9.26;83.04
54554;BME280;40450;55.848;-3.572;2023-04-19T04:23:04;101274.35;;;9.53;81.20
54554;BME280;40450;55.848;-3.572;2023-04-19T04:25:34;101279.19;;;8.19;83.69
54554;BME280;40450;55.848;-3.572;2023-04-19T04:28:05;101280.42;;;8.76;83.44
54554;BME280;40450;55.848;-3.572;2023-04-19T04:30:35;101275.59;;;8.08;84.93
54554;BME280;40450;55.848;-3.572;2023-04-19T04:33:05;101280.52;;;7.02;87.20
54554;BME280;40450;55.848;-3.572;2023-04-19T04:35:35;101273.16;;;6.17;89.08
54554;BME280;40450;55.848;-3.572;2023-04-19T04:38:06;101268.07;;;6.38;90.04
54554;BME280;40450;55.848;-3.572;2023-04-19T04:40:36;101274.73;;;5.01;93.26
54554;BME280;40450;55.848;-3.572;2023-04-19T04:43:07;101269.11;;;3.10;97.19
54554;BME280;40450;55.848;-3.572;2023-04-19T04:45:37;101274.45;;;2.34;99.53
54554;BME280;40450;55.848;-3.572;2023-04-19T04:48:07;101267.48;;;2.84;99.25
54554;BME280;40450;55.848;-3.572;2023-04-19T04:50:37;101270.69;;;1.22;100.00
54554;BME280;40450;55.848;-3.572;2023-04-19T04:53:08;101259.30;;;4.34;98.00
54554;BME280;40450;55.848;-3.572;2023-04-19T04:55:38;101262.91;;;1.41;100.00
54554;BME280;40450;55.848;-3.572;2023-04-19T04:58:13;101255.60;;;3.21;99.57
54554;BME280;40450;55.848;-3.572;2023-04-19T05:00:39;101254.38;;;3.99;98.73
54554;BME280;40450;55.848;-3.572;2023-04-19T05:03:10;101255.86;;;3.51;97.59
54554;BME280;40450;55.848;-3.572;2023-04-19T05:05:40;101262.65;;;2.31;100.00
54554;BME280;40450;55.848;-3.572;2023-04-19T05:08:11;101248.93;;;4.63;97.04
54554;BME280;40450;55.848;-3.572;2023-04-19T05:10:42;101259.06;;;1.33;100.00
54554;BME280;40450;55.848;-3.572;2023-04-19T05:13:12;101263.00;;;2.12;100.00
54554;BME280;40450;55.848;-3.572;2023-04-19T05:15:42;101260.17;;;0.60;100.00
54554;BME280;40450;55.848;-3.572;2023-04-19T05:18:13;101254.99;;;1.05;100.00
54554;BME280;40450;55.848;-3.572;2023-04-19T05:20:43;101256.20;;;0.94;100.00
54554;BME280;40450;55.848;-3.572;2023-04-19T05:23:14;101259.38;;;1.93;100.00
54554;BME280;40450;55.848;-3.572;2023-04-19T05:25:44;101255.38;;;2.20;100.00
54554;BME280;40450;55.848;-3.572;2023-04-19T05:28:14;101256.89;;;0.54;100.00
54554;BME280;40450;55.848;-3.572;2023-04-19T05:30:45;101253.59;;;0.48;100.00
54554;BME280;40450;55.848;-3.572;2023-04-19T05:33:15;101256.10;;;0.96;100.00
54554;BME280;40450;55.848;-3.572;2023-04-19T05:35:45;101259.02;;;0.12;100.00
54554;BME280;40450;55.848;-3.572;2023-04-19T05:38:15;101260.57;;;0.59;100.00
54554;BME280;40450;55.848;-3.572;2023-04-19T05:40:45;101257.14;;;1.10;100.00
54554;BME280;40450;55.848;-3.572;2023-04-19T05:43:15;101262.93;;;0.15;100.00
54554;BME280;40450;55.848;-3.572;2023-04-19T05:45:46;101262.47;;;1.18;100.00
54554;BME280;40450;55.848;-3.572;2023-04-19T05:48:16;101263.42;;;-0.86;100.00
54554;BME280;40450;55.848;-3.572;2023-04-19T05:50:46;101260.45;;;0.31;100.00
54554;BME280;40450;55.848;-3.572;2023-04-19T05:53:16;101257.77;;;0.42;100.00
54554;BME280;40450;55.848;-3.572;2023-04-19T05:55:46;101259.37;;;0.42;100.00
54554;BME280;40450;55.848;-3.572;2023-04-19T05:58:17;101259.10;;;1.30;100.00
54554;BME280;40450;55.848;-3.572;2023-04-19T06:00:48;101261.00;;;1.69;100.00
54554;BME280;40450;55.848;-3.572;2023-04-19T06:03:18;101263.08;;;2.19;100.00
54554;BME280;40450;55.848;-3.572;2023-04-19T06:05:48;101261.65;;;0.54;100.00
54554;BME280;40450;55.848;-3.572;2023-04-19T06:08:19;101257.88;;;-0.30;100.00
54554;BME280;40450;55.848;-3.572;2023-04-19T06:10:50;101257.67;;;-0.21;100.00
54554;BME280;40450;55.848;-3.572;2023-04-19T06:13:21;101252.85;;;0.46;100.00
54554;BME280;40450;55.848;-3.572;2023-04-19T06:15:50;101263.04;;;2.20;100.00
54554;BME280;40450;55.848;-3.572;2023-04-19T06:18:21;101259.00;;;2.31;100.00
54554;BME280;40450;55.848;-3.572;2023-04-19T06:20:52;101257.67;;;2.70;100.00
54554;BME280;40450;55.848;-3.572;2023-04-19T06:23:22;101259.52;;;4.45;99.11
54554;BME280;40450;55.848;-3.572;2023-04-19T06:25:52;101259.63;;;3.15;99.64
54554;BME280;40450;55.848;-3.572;2023-04-19T06:28:22;101260.73;;;3.61;98.77
54554;BME280;40450;55.848;-3.572;2023-04-19T06:30:52;101255.57;;;6.02;97.34
54554;BME280;40450;55.848;-3.572;2023-04-19T06:33:23;101263.56;;;1.44;100.00
54554;BME280;40450;55.848;-3.572;2023-04-19T06:35:53;101257.74;;;1.14;100.00
54554;BME280;40450;55.848;-3.572;2023-04-19T06:38:24;101249.21;;;3.49;99.88
54554;BME280;40450;55.848;-3.572;2023-04-19T06:40:54;101242.98;;;3.37;99.47
54554;BME280;40450;55.848;-3.572;2023-04-19T06:43:25;101246.15;;;0.55;100.00
54554;BME280;40450;55.848;-3.572;2023-04-19T06:45:57;101249.36;;;1.18;100.00
54554;BME280;40450;55.848;-3.572;2023-04-19T06:48:26;101253.41;;;0.89;100.00
54554;BME280;40450;55.848;-3.572;2023-04-19T06:50:56;101249.36;;;1.59;100.00
54554;BME280;40450;55.848;-3.572;2023-04-19T06:53:27;101245.06;;;2.65;100.00
54554;BME280;40450;55.848;-3.572;2023-04-19T06:56:01;101247.17;;;2.72;100.00
54554;BME280;40450;55.848;-3.572;2023-04-19T06:58:28;101246.16;;;3.43;100.00
54554;BME280;40450;55.848;-3.572;2023-04-19T07:00:59;101245.98;;;4.33;99.95
54554;BME280;40450;55.848;-3.572;2023-04-19T07:03:29;101247.71;;;4.87;97.40
54554;BME280;40450;55.848;-3.572;2023-04-19T07:06:00;101241.74;;;5.89;96.00
54554;BME280;40450;55.848;-3.572;2023-04-19T07:08:29;101245.24;;;4.35;98.01
54554;BME280;40450;55.848;-3.572;2023-04-19T07:11:00;101245.01;;;3.11;100.00
54554;BME280;40450;55.848;-3.572;2023-04-19T07:13:30;101249.11;;;4.57;99.33
54554;BME280;40450;55.848;-3.572;2023-04-19T07:16:03;101255.97;;;2.31;100.00
54554;BME280;40450;55.848;-3.572;2023-04-19T07:18:31;101250.16;;;3.66;100.00
54554;BME280;40450;55.848;-3.572;2023-04-19T07:21:02;101247.80;;;4.55;99.11
54554;BME280;40450;55.848;-3.572;2023-04-19T07:23:32;101236.51;;;3.50;99.29
54554;BME280;40450;55.848;-3.572;2023-04-19T07:26:02;101244.86;;;4.20;98.84
54554;BME280;40450;55.848;-3.572;2023-04-19T07:28:32;101259.62;;;2.29;100.00
54554;BME280;40450;55.848;-3.572;2023-04-19T07:31:02;101256.04;;;2.91;100.00
54554;BME280;40450;55.848;-3.572;2023-04-19T07:33:33;101257.88;;;4.05;99.28
54554;BME280;40450;55.848;-3.572;2023-04-19T07:36:03;101256.32;;;4.53;98.71
54554;BME280;40450;55.848;-3.572;2023-04-19T07:38:34;101258.77;;;3.53;99.31
54554;BME280;40450;55.848;-3.572;2023-04-19T07:41:04;101259.13;;;3.12;100.00
54554;BME280;40450;55.848;-3.572;2023-04-19T07:43:34;101257.11;;;3.71;98.32
54554;BME280;40450;55.848;-3.572;2023-04-19T07:46:08;101263.25;;;3.74;99.03
54554;BME280;40450;55.848;-3.572;2023-04-19T07:48:35;101260.72;;;2.81;99.07
54554;BME280;40450;55.848;-3.572;2023-04-19T07:51:08;101255.08;;;3.22;99.87
54554;BME280;40450;55.848;-3.572;2023-04-19T07:53:37;101262.50;;;2.26;100.00
54554;BME280;40450;55.848;-3.572;2023-04-19T07:56:07;101253.29;;;1.21;100.00
54554;BME280;40450;55.848;-3.572;2023-04-19T07:58:37;101253.05;;;0.89;100.00
54554;BME280;40450;55.848;-3.572;2023-04-19T08:01:07;101253.55;;;2.02;100.00
54554;BME280;40450;55.848;-3.572;2023-04-19T08:03:38;101253.54;;;2.09;100.00
54554;BME280;40450;55.848;-3.572;2023-04-19T08:06:08;101252.75;;;1.96;100.00
54554;BME280;40450;55.848;-3.572;2023-04-19T08:08:39;101251.23;;;0.84;100.00
54554;BME280;40450;55.848;-3.572;2023-04-19T08:11:09;101253.50;;;0.41;100.00
54554;BME280;40450;55.848;-3.572;2023-04-19T08:13:40;101255.00;;;1.45;100.00
54554;BME280;40450;55.848;-3.572;2023-04-19T08:16:10;101259.27;;;2.33;100.00
54554;BME280;40450;55.848;-3.572;2023-04-19T08:18:41;101256.52;;;2.54;100.00
54554;BME280;40450;55.848;-3.572;2023-04-19T08:21:11;101251.95;;;2.50;100.00
54554;BME280;40450;55.848;-3.572;2023-04-19T08:23:41;101258.54;;;2.28;100.00
54554;BME280;40450;55.848;-3.572;2023-04-19T08:26:12;101253.30;;;3.37;100.00
54554;BME280;40450;55.848;-3.572;2023-04-19T08:28:42;101255.71;;;2.35;100.00
54554;BME280;40450;55.848;-3.572;2023-04-19T08:31:12;101252.67;;;2.90;100.00
54554;BME280;40450;55.848;-3.572;2023-04-19T08:33:42;101250.11;;;3.78;99.59
54554;BME280;40450;55.848;-3.572;2023-04-19T08:36:13;101258.76;;;1.84;100.00
54554;BME280;40450;55.848;-3.572;2023-04-19T08:38:43;101250.65;;;5.81;97.86
54554;BME280;40450;55.848;-3.572;2023-04-19T08:41:16;101250.83;;;6.87;95.65
54554;BME280;40450;55.848;-3.572;2023-04-19T08:43:46;101243.54;;;8.25;90.27
54554;BME280;40450;55.848;-3.572;2023-04-19T08:46:14;101239.73;;;5.65;95.55
54554;BME280;40450;55.848;-3.572;2023-04-19T08:48:45;101251.67;;;4.53;97.79
54554;BME280;40450;55.848;-3.572;2023-04-19T08:51:16;101249.89;;;4.17;97.67
54554;BME280;40450;55.848;-3.572;2023-04-19T08:53:46;101252.16;;;2.67;100.00
54554;BME280;40450;55.848;-3.572;2023-04-19T08:56:17;101247.29;;;2.35;100.00
54554;BME280;40450;55.848;-3.572;2023-04-19T08:58:46;101255.53;;;1.90;100.00
54554;BME280;40450;55.848;-3.572;2023-04-19T09:01:17;101252.48;;;1.22;100.00
54554;BME280;40450;55.848;-3.572;2023-04-19T09:03:47;101247.71;;;2.71;100.00
54554;BME280;40450;55.848;-3.572;2023-04-19T09:06:18;101240.44;;;3.08;100.00
54554;BME280;40450;55.848;-3.572;2023-04-19T09:08:48;101241.04;;;3.04;100.00
54554;BME280;40450;55.848;-3.572;2023-04-19T09:11:19;101234.90;;;4.85;98.97
54554;BME280;40450;55.848;-3.572;2023-04-19T09:13:49;101232.94;;;5.64;94.52
54554;BME280;40450;55.848;-3.572;2023-04-19T09:16:23;101232.42;;;5.08;95.62
54554;BME280;40450;55.848;-3.572;2023-04-19T09:18:54;101226.50;;;6.06;94.98
54554;BME280;40450;55.848;-3.572;2023-04-19T09:21:28;101231.81;;;5.13;95.08
54554;BME280;40450;55.848;-3.572;2023-04-19T09:23:50;101233.51;;;4.25;97.13
54554;BME280;40450;55.848;-3.572;2023-04-19T09:26:20;101225.86;;;3.81;97.43
54554;BME280;40450;55.848;-3.572;2023-04-19T09:28:56;101230.01;;;3.04;99.61
54554;BME280;40450;55.848;-3.572;2023-04-19T09:31:21;101227.15;;;5.76;95.77
54554;BME280;40450;55.848;-3.572;2023-04-19T09:33:53;101227.29;;;3.92;99.01
54554;BME280;40450;55.848;-3.572;2023-04-19T09:36:27;101227.84;;;4.15;98.37
54554;BME280;40450;55.848;-3.572;2023-04-19T09:38:58;101222.60;;;5.23;96.22
54554;BME280;40450;55.848;-3.572;2023-04-19T09:41:24;101218.94;;;4.73;97.39
54554;BME280;40450;55.848;-3.572;2023-04-19T09:46:30;101211.19;;;6.62;93.70
54554;BME280;40450;55.848;-3.572;2023-04-19T09:48:54;101216.04;;;3.10;99.50
54554;BME280;40450;55.848;-3.572;2023-04-19T09:53:54;101213.86;;;4.77;97.64
54554;BME280;40450;55.848;-3.572;2023-04-19T09:56:24;101207.81;;;5.02;95.87
54554;BME280;40450;55.848;-3.572;2023-04-19T09:58:54;101211.14;;;4.69;96.90
54554;BME280;40450;55.848;-3.572;2023-04-19T10:01:24;101214.46;;;5.06;95.75
54554;BME280;40450;55.848;-3.572;2023-04-19T10:03:55;101210.31;;;4.49;96.58
54554;BME280;40450;55.848;-3.572;2023-04-19T10:06:25;101210.11;;;4.19;97.93
54554;BME280;40450;55.848;-3.572;2023-04-19T10:08:55;101208.23;;;5.84;94.76
54554;BME280;40450;55.848;-3.572;2023-04-19T10:11:30;101206.52;;;6.16;93.48
54554;BME280;40450;55.848;-3.572;2023-04-19T10:13:59;101204.91;;;6.42;92.62
54554;BME280;40450;55.848;-3.572;2023-04-19T10:16:26;101202.67;;;5.24;94.93
54554;BME280;40450;55.848;-3.572;2023-04-19T10:18:57;101203.66;;;4.75;96.98
54554;BME280;40450;55.848;-3.572;2023-04-19T10:21:27;101200.12;;;3.53;99.22
54554;BME280;40450;55.848;-3.572;2023-04-19T10:23:57;101202.19;;;4.37;98.84
54554;BME280;40450;55.848;-3.572;2023-04-19T10:26:27;101199.64;;;5.06;97.77
54554;BME280;40450;55.848;-3.572;2023-04-19T10:28:57;101198.27;;;4.15;98.84
54554;BME280;40450;55.848;-3.572;2023-04-19T10:31:27;101193.22;;;5.53;97.56
54554;BME280;40450;55.848;-3.572;2023-04-19T10:33:58;101188.10;;;6.30;95.68
54554;BME280;40450;55.848;-3.572;2023-04-19T10:36:28;101190.36;;;4.60;99.04
54554;BME280;40450;55.848;-3.572;2023-04-19T10:38:58;101194.37;;;3.97;100.00
54554;BME280;40450;55.848;-3.572;2023-04-19T10:44:08;101180.90;;;5.20;97.84
54554;BME280;40450;55.848;-3.572;2023-04-19T10:46:36;101176.54;;;5.43;98.02
54554;BME280;40450;55.848;-3.572;2023-04-19T10:49:01;101179.13;;;4.98;98.97
54554;BME280;40450;55.848;-3.572;2023-04-19T10:51:33;101184.88;;;4.12;100.00
54554;BME280;40450;55.848;-3.572;2023-04-19T10:54:02;101173.70;;;4.57;100.00
54554;BME280;40450;55.848;-3.572;2023-04-19T11:01:31;101156.15;;;7.45;95.31
54554;BME280;40450;55.848;-3.572;2023-04-19T11:04:02;101164.28;;;5.98;96.31
54554;BME280;40450;55.848;-3.572;2023-04-19T11:06:33;101170.50;;;6.59;96.53
54554;BME280;40450;55.848;-3.572;2023-04-19T11:09:02;101164.56;;;6.93;95.64
54554;BME280;40450;55.848;-3.572;2023-04-19T11:11:36;101164.64;;;6.84;96.18
54554;BME280;40450;55.848;-3.572;2023-04-19T11:14:04;101164.09;;;6.78;96.76
54554;BME280;40450;55.848;-3.572;2023-04-19T11:16:33;101149.49;;;7.50;95.05
54554;BME280;40450;55.848;-3.572;2023-04-19T11:19:03;101155.48;;;8.67;84.71
54554;BME280;40450;55.848;-3.572;2023-04-19T11:21:39;101144.67;;;9.61;78.03
54554;BME280;40450;55.848;-3.572;2023-04-19T11:24:06;101141.42;;;9.53;74.87
54554;BME280;40450;55.848;-3.572;2023-04-19T11:26:35;101152.60;;;9.01;84.15
54554;BME280;40450;55.848;-3.572;2023-04-19T11:29:09;101148.12;;;9.22;86.04
54554;BME280;40450;55.848;-3.572;2023-04-19T11:31:42;101145.35;;;9.75;83.43
54554;BME280;40450;55.848;-3.572;2023-04-19T11:34:04;101132.03;;;9.73;78.44
54554;BME280;40450;55.848;-3.572;2023-04-19T11:39:05;101130.20;;;11.13;72.81
54554;BME280;40450;55.848;-3.572;2023-04-19T11:41:37;101138.75;;;9.60;81.57
54554;BME280;40450;55.848;-3.572;2023-04-19T11:44:12;101139.69;;;8.21;83.43
54554;BME280;40450;55.848;-3.572;2023-04-19T11:46:36;101127.16;;;9.38;73.73
54554;BME280;40450;55.848;-3.572;2023-04-19T11:49:07;101131.24;;;11.36;72.44
54554;BME280;40450;55.848;-3.572;2023-04-19T11:51:41;101130.89;;;10.11;74.70
54554;BME280;40450;55.848;-3.572;2023-04-19T11:54:12;101123.84;;;11.73;67.26
54554;BME280;40450;55.848;-3.572;2023-04-19T11:59:08;101120.35;;;12.51;63.53
54554;BME280;40450;55.848;-3.572;2023-04-19T12:01:40;101126.33;;;13.62;60.58
54554;BME280;40450;55.848;-3.572;2023-04-19T12:04:08;101117.61;;;13.41;58.66
54554;BME280;40450;55.848;-3.572;2023-04-19T12:06:39;101120.77;;;13.93;58.90
54554;BME280;40450;55.848;-3.572;2023-04-19T12:09:09;101118.21;;;13.43;58.89
54554;BME280;40450;55.848;-3.572;2023-04-19T12:11:45;101119.26;;;12.92;58.63
54554;BME280;40450;55.848;-3.572;2023-04-19T12:14:11;101119.06;;;12.93;57.06
54554;BME280;40450;55.848;-3.572;2023-04-19T12:16:40;101112.79;;;12.34;60.74
54554;BME280;40450;55.848;-3.572;2023-04-19T12:19:11;101110.16;;;13.16;58.59
54554;BME280;40450;55.848;-3.572;2023-04-19T12:21:41;101115.29;;;13.84;58.15
54554;BME280;40450;55.848;-3.572;2023-04-19T12:24:14;101122.60;;;14.62;54.62
54554;BME280;40450;55.848;-3.572;2023-04-19T12:29:12;101116.92;;;15.26;52.71
54554;BME280;40450;55.848;-3.572;2023-04-19T12:31:43;101118.31;;;15.02;51.67
54554;BME280;40450;55.848;-3.572;2023-04-19T12:34:14;101114.04;;;14.61;52.47
54554;BME280;40450;55.848;-3.572;2023-04-19T12:36:44;101120.75;;;14.67;52.28
54554;BME280;40450;55.848;-3.572;2023-04-19T12:39:15;101105.58;;;14.20;51.96
54554;BME280;40450;55.848;-3.572;2023-04-19T12:41:45;101115.13;;;13.98;53.35
54554;BME280;40450;55.848;-3.572;2023-04-19T12:44:16;101112.51;;;14.85;50.66
54554;BME280;40450;55.848;-3.572;2023-04-19T12:46:46;101109.33;;;14.10;53.13
54554;BME280;40450;55.848;-3.572;2023-04-19T12:49:17;101110.43;;;14.02;51.42
54554;BME280;40450;55.848;-3.572;2023-04-19T12:51:46;101113.33;;;14.68;51.05
54554;BME280;40450;55.848;-3.572;2023-04-19T12:54:17;101116.20;;;14.77;51.15
54554;BME280;40450;55.848;-3.572;2023-04-19T12:56:49;101118.87;;;14.97;49.18
54554;BME280;40450;55.848;-3.572;2023-04-19T12:59:19;101106.86;;;14.90;47.89
54554;BME280;40450;55.848;-3.572;2023-04-19T13:01:49;101115.07;;;15.14;46.54
54554;BME280;40450;55.848;-3.572;2023-04-19T13:04:20;101112.23;;;14.63;48.14
54554;BME280;40450;55.848;-3.572;2023-04-19T13:06:50;101110.48;;;14.67;46.20
54554;BME280;40450;55.848;-3.572;2023-04-19T13:09:26;101113.32;;;14.15;49.26
54554;BME280;40450;55.848;-3.572;2023-04-19T13:11:51;101106.46;;;14.08;48.86
54554;BME280;40450;55.848;-3.572;2023-04-19T13:14:22;101110.35;;;14.61;48.37
54554;BME280;40450;55.848;-3.572;2023-04-19T13:16:52;101110.75;;;15.07;46.25
54554;BME280;40450;55.848;-3.572;2023-04-19T13:19:22;101113.55;;;15.12;46.76
54554;BME280;40450;55.848;-3.572;2023-04-19T13:21:52;101111.89;;;15.30;46.89